Terminal Aerodrome Forecast
Issued by NWS Cleveland, OH

Home | Current Version | Previous Version | Graphics & Text | Print | Product List | Glossary On
Versions: 1 2 3 4 5 6 7 8 9 10 11 12 13 14 15 16 17 18 19 20 21
000
FTUS41 KCLE 182107 AAA
TAFCLE
TAF AMD
KCLE 182107Z 1821/1924 02007KT P6SM FEW050
     FM190200 16003KT P6SM SCT250
     FM191500 27006KT P6SM SCT040=

USA.gov is the U.S. government's official web portal to all federal, state and local government web resources and services.